Time;durP1;ratioP1;P1;durP2;ratioP2;P2;SDS_P1;SDS_P2;PMS_P1;PMS_P2;Temp;Humidity;BMP_temperature;BMP_pressure;BME280_temperature;BME280_humidity;BME280_pressure;Samples;Min_cycle;Max_cycle;Signal;HPM_P1;HPM_P2
2022/02/01 00:03:21;;;;;;;14.43;2.25;;;7.40;97.20;;;;;;5068242;28;20764;-70
2022/02/01 00:06:07;;;;;;;20.67;2.50;;;7.40;96.90;;;;;;5067205;28;20984;-70
2022/02/01 00:09:02;;;;;;;17.70;2.38;;;7.50;97.00;;;;;;5048869;28;20722;-69
2022/02/01 00:11:40;;;;;;;18.83;2.40;;;7.50;97.20;;;;;;5065289;28;20411;-70
2022/02/01 00:14:20;;;;;;;15.75;2.47;;;7.50;97.10;;;;;;5067489;28;20403;-69
2022/02/01 00:19:39;;;;;;;19.90;2.50;;;7.50;97.30;;;;;;5067489;28;20453;-70
2022/02/01 00:40:34;;;;;;;18.38;2.88;;;7.60;97.80;;;;;;5065943;28;20488;-70
2022/02/01 00:43:00;;;;;;;21.92;3.13;;;7.70;97.80;;;;;;5070332;28;20427;-70
2022/02/01 00:45:26;;;;;;;18.95;2.50;;;7.70;97.60;;;;;;5070305;28;20771;-68
2022/02/01 00:47:52;;;;;;;12.73;2.00;;;7.70;97.60;;;;;;5072060;28;20391;-69
2022/02/01 00:50:17;;;;;;;17.42;2.22;;;7.70;97.10;;;;;;5070727;28;20494;-70
2022/02/01 00:52:44;;;;;;;17.83;2.10;;;7.70;96.90;;;;;;5069580;28;20423;-69
2022/02/01 00:55:11;;;;;;;15.50;2.33;;;7.70;96.60;;;;;;5069817;28;20761;-69
2022/02/01 00:57:37;;;;;;;13.80;2.40;;;7.70;96.50;;;;;;5069710;28;21742;-70
2022/02/01 01:00:07;;;;;;;14.77;2.27;;;7.70;96.40;;;;;;5070578;28;20419;-69
2022/02/01 01:02:33;;;;;;;18.15;2.10;;;7.70;96.50;;;;;;5070712;28;20468;-70
2022/02/01 01:04:58;;;;;;;22.00;2.20;;;7.70;96.60;;;;;;5070152;28;20407;-69
2022/02/01 01:07:24;;;;;;;15.37;1.83;;;7.70;96.60;;;;;;5070951;28;20892;-69
2022/02/01 01:09:51;;;;;;;17.63;2.20;;;7.70;96.70;;;;;;5070335;28;20415;-71
2022/02/01 01:12:17;;;;;;;25.20;2.83;;;7.60;97.30;;;;;;5070680;28;20399;-69
2022/02/01 01:15:05;;;;;;;22.03;3.03;;;7.60;97.40;;;;;;5069609;28;20427;-71
2022/02/01 01:44:41;;;;;;;22.98;2.90;;;7.70;98.50;;;;;;5068750;28;20482;-71
2022/02/01 01:53:11;;;;;;;20.02;2.90;;;7.70;98.40;;;;;;5050923;28;20414;-70
2022/02/01 01:55:36;;;;;;;20.20;2.90;;;7.70;98.40;;;;;;5067806;28;20419;-71
2022/02/01 01:58:03;;;;;;;19.33;3.45;;;7.70;98.30;;;;;;5070490;28;20412;-70
2022/02/01 02:03:13;;;;;;;21.90;3.20;;;7.60;98.30;;;;;;5068714;28;20753;-71
2022/02/01 02:05:39;;;;;;;25.42;4.03;;;7.70;98.30;;;;;;5069487;28;20480;-70
2022/02/01 02:08:05;;;;;;;23.13;3.33;;;7.60;98.50;;;;;;5068959;28;20473;-71
2022/02/01 02:10:36;;;;;;;25.40;4.22;;;7.60;98.70;;;;;;5068509;28;20565;-72
2022/02/01 02:14:17;;;;;;;27.08;3.90;;;7.60;98.90;;;;;;5069918;28;20415;-71
2022/02/01 02:18:20;;;;;;;18.00;3.25;;;7.60;99.00;;;;;;5070149;28;20490;-70
2022/02/01 02:20:59;;;;;;;18.80;3.08;;;7.60;98.80;;;;;;5050102;28;20506;-71
2022/02/01 02:23:25;;;;;;;21.42;3.13;;;7.60;98.50;;;;;;5067528;28;20423;-71
2022/02/01 02:25:51;;;;;;;22.02;2.88;;;7.60;98.10;;;;;;5069166;28;20464;-71
2022/02/01 02:28:18;;;;;;;19.55;2.58;;;7.70;98.10;;;;;;5068364;28;20391;-71
2022/02/01 02:30:47;;;;;;;16.30;2.90;;;7.70;97.30;;;;;;5068036;28;20420;-71
2022/02/01 02:33:15;;;;;;;17.95;2.67;;;7.70;97.00;;;;;;5067596;28;20448;-71
2022/02/01 02:36:05;;;;;;;18.25;2.83;;;7.70;97.10;;;;;;5068503;28;20865;-71
2022/02/01 02:38:37;;;;;;;16.65;2.75;;;7.70;97.20;;;;;;5033326;28;20494;-72
2022/02/01 02:46:26;;;;;;;17.90;2.90;;;7.70;97.40;;;;;;5068368;28;20420;-70
2022/02/01 02:48:52;;;;;;;23.95;3.78;;;7.80;97.60;;;;;;5050314;28;20413;-71
2022/02/01 02:51:19;;;;;;;13.10;2.60;;;7.80;97.70;;;;;;5068143;28;20891;-71
2022/02/01 02:53:45;;;;;;;17.92;3.28;;;7.80;97.80;;;;;;5068892;28;20407;-71
2022/02/01 02:56:12;;;;;;;21.38;3.35;;;7.80;98.00;;;;;;5081849;28;20480;-71
2022/02/01 02:58:38;;;;;;;22.08;3.78;;;7.80;98.20;;;;;;5066852;28;20407;-71
2022/02/01 03:01:04;;;;;;;20.52;3.90;;;7.80;98.30;;;;;;5048562;28;20795;-71
2022/02/01 03:03:30;;;;;;;21.27;3.30;;;7.90;98.40;;;;;;5068781;28;20484;-70
2022/02/01 03:05:56;;;;;;;23.63;3.72;;;7.90;98.60;;;;;;5048727;28;20415;-71
2022/02/01 03:08:26;;;;;;;18.63;4.00;;;7.90;98.80;;;;;;5051100;28;20414;-70
2022/02/01 03:10:51;;;;;;;27.98;3.75;;;7.90;99.20;;;;;;5067004;28;20415;-71
2022/02/01 03:13:24;;;;;;;26.52;3.85;;;7.90;98.80;;;;;;5067992;28;20423;-71
2022/02/01 03:15:57;;;;;;;16.45;3.47;;;7.90;98.70;;;;;;5067996;28;20399;-71
2022/02/01 03:21:07;;;;;;;19.33;3.95;;;7.90;98.60;;;;;;5067923;28;20411;-71
2022/02/01 03:23:32;;;;;;;22.93;3.43;;;7.90;98.60;;;;;;5067502;28;20465;-71
2022/02/01 03:25:58;;;;;;;18.55;3.88;;;7.80;98.50;;;;;;5049332;28;20503;-71
2022/02/01 03:28:25;;;;;;;20.10;3.63;;;7.90;98.70;;;;;;5068177;28;20396;-72
2022/02/01 03:30:51;;;;;;;22.43;3.60;;;7.90;98.80;;;;;;5068025;28;20469;-71
2022/02/01 03:33:16;;;;;;;20.87;3.57;;;7.90;98.90;;;;;;5049824;28;20415;-71
2022/02/01 03:35:42;;;;;;;17.13;3.80;;;7.90;99.10;;;;;;5067405;28;20502;-71
2022/02/01 03:38:07;;;;;;;21.90;3.50;;;7.90;99.10;;;;;;5068665;28;20519;-71
2022/02/01 03:40:33;;;;;;;26.25;4.07;;;7.90;99.30;;;;;;5049461;28;20844;-71
2022/02/01 03:42:59;;;;;;;23.03;4.17;;;7.90;99.60;;;;;;5050629;28;20519;-71
2022/02/01 03:45:25;;;;;;;20.97;3.67;;;7.90;99.80;;;;;;5049574;28;20990;-73
2022/02/01 03:47:51;;;;;;;22.08;3.80;;;7.90;99.90;;;;;;5068071;28;20412;-71
2022/02/01 03:50:17;;;;;;;26.23;4.00;;;7.90;99.90;;;;;;5067796;28;20400;-71
2022/02/01 03:52:42;;;;;;;25.25;4.00;;;7.90;99.90;;;;;;5068608;28;20407;-71
2022/02/01 03:55:08;;;;;;;26.43;4.77;;;7.90;99.90;;;;;;5066147;28;20912;-71
2022/02/01 03:57:34;;;;;;;25.25;4.55;;;7.90;99.90;;;;;;5067732;28;20497;-71
2022/02/01 03:59:59;;;;;;;24.70;4.60;;;7.90;99.90;;;;;;5066605;28;20476;-71
2022/02/01 04:02:25;;;;;;;27.55;4.28;;;8.00;99.90;;;;;;5067237;28;20477;-71
2022/02/01 04:04:53;;;;;;;27.33;4.87;;;7.90;99.90;;;;;;5048685;28;20419;-71
2022/02/01 04:07:20;;;;;;;26.13;4.90;;;8.00;99.90;;;;;;5038140;28;20798;-71
2022/02/01 04:09:49;;;;;;;35.53;5.10;;;8.00;99.90;;;;;;5049397;28;20783;-71
2022/02/01 04:12:15;;;;;;;30.63;4.90;;;7.90;99.90;;;;;;5067277;28;20569;-71
2022/02/01 04:14:40;;;;;;;31.43;5.00;;;8.00;99.90;;;;;;5065257;28;20892;-70
2022/02/01 04:17:08;;;;;;;29.38;5.00;;;8.00;99.90;;;;;;5070689;28;20400;-71
2022/02/01 04:19:35;;;;;;;28.73;5.40;;;8.00;99.90;;;;;;5069623;28;20415;-70
2022/02/01 04:22:01;;;;;;;27.88;4.90;;;8.00;99.90;;;;;;5072345;28;20425;-70
2022/02/01 04:24:36;;;;;;;31.55;5.20;;;8.00;99.90;;;;;;5052814;28;20422;-71
2022/02/01 04:27:03;;;;;;;31.45;5.60;;;8.00;99.90;;;;;;5070683;28;20406;-72
2022/02/01 04:29:29;;;;;;;34.13;5.47;;;8.00;99.90;;;;;;5052829;28;20441;-70
2022/02/01 04:31:55;;;;;;;29.80;5.20;;;8.00;99.90;;;;;;5070548;28;20434;-71
2022/02/01 04:34:21;;;;;;;34.60;5.60;;;8.00;99.90;;;;;;5071479;28;20395;-71
2022/02/01 04:36:47;;;;;;;29.10;5.45;;;8.00;99.90;;;;;;5070850;28;20426;-70
2022/02/01 04:39:12;;;;;;;30.70;5.83;;;8.10;99.90;;;;;;5070358;28;20403;-70
2022/02/01 04:41:38;;;;;;;27.67;5.55;;;8.10;99.90;;;;;;5069177;28;20423;-69
2022/02/01 04:44:04;;;;;;;24.20;5.40;;;8.10;99.90;;;;;;5053455;28;20419;-70
2022/02/01 04:46:31;;;;;;;28.30;5.50;;;8.10;99.90;;;;;;5069839;28;20415;-71
2022/02/01 04:49:05;;;;;;;30.90;5.40;;;8.00;99.90;;;;;;5071672;28;20426;-70
2022/02/01 04:51:30;;;;;;;23.75;5.47;;;8.00;99.90;;;;;;5070223;28;20450;-70
2022/02/01 04:53:57;;;;;;;28.83;5.90;;;8.00;99.90;;;;;;5052252;28;20431;-70
2022/02/01 04:56:24;;;;;;;26.10;5.97;;;7.90;99.90;;;;;;5069618;28;20400;-70
2022/02/01 04:58:50;;;;;;;28.00;5.93;;;7.90;99.90;;;;;;5070719;28;20410;-71
2022/02/01 05:01:16;;;;;;;27.85;6.05;;;7.90;99.90;;;;;;5052938;28;20460;-70
2022/02/01 05:03:42;;;;;;;33.03;5.60;;;7.90;99.90;;;;;;5070719;28;20414;-71
2022/02/01 05:06:08;;;;;;;37.83;6.13;;;8.00;99.90;;;;;;5069410;28;20741;-71
2022/02/01 05:08:34;;;;;;;29.83;5.90;;;8.00;99.90;;;;;;5053115;28;20410;-71
2022/02/01 05:11:00;;;;;;;30.98;5.88;;;8.00;99.90;;;;;;5069163;28;20451;-71
2022/02/01 05:16:05;;;;;;;28.75;5.72;;;7.70;99.90;;;;;;5071059;28;20233;-72
2022/02/01 05:18:38;;;;;;;30.25;5.50;;;7.40;99.90;;;;;;5072237;28;20594;-72
2022/02/01 05:21:11;;;;;;;27.52;5.20;;;7.20;99.90;;;;;;5053361;28;20202;-71
2022/02/01 05:23:37;;;;;;;28.10;5.45;;;7.10;99.90;;;;;;5054209;28;20202;-71
2022/02/01 05:26:04;;;;;;;31.60;6.25;;;6.90;99.90;;;;;;5069243;28;20193;-71
2022/02/01 05:28:30;;;;;;;20.75;5.38;;;6.80;99.90;;;;;;5069688;28;20183;-71
2022/02/01 05:31:02;;;;;;;27.98;5.95;;;6.80;99.90;;;;;;5053020;28;20179;-71
2022/02/01 05:33:29;;;;;;;26.90;5.05;;;6.70;99.90;;;;;;5072049;28;20194;-71
2022/02/01 05:35:55;;;;;;;23.05;6.47;;;6.60;99.90;;;;;;5070521;28;21647;-70
2022/02/01 05:38:21;;;;;;;31.50;7.20;;;6.60;99.90;;;;;;5071749;28;20643;-71
2022/02/01 05:40:46;;;;;;;31.92;7.03;;;6.50;99.90;;;;;;5069867;28;20228;-70
2022/02/01 05:43:18;;;;;;;35.35;7.65;;;6.60;99.90;;;;;;5054304;28;20218;-71
2022/02/01 05:45:44;;;;;;;43.67;11.80;;;6.50;99.90;;;;;;5068415;28;20407;-71
2022/02/01 05:48:10;;;;;;;42.92;11.90;;;6.90;99.90;;;;;;5070783;28;20398;-71
2022/02/01 05:50:36;;;;;;;48.10;11.82;;;7.30;99.90;;;;;;5069830;28;20422;-71
2022/02/01 05:53:02;;;;;;;48.03;12.60;;;7.40;99.90;;;;;;5051318;28;20420;-72
2022/02/01 05:55:28;;;;;;;40.75;11.75;;;7.60;99.90;;;;;;5049780;28;20447;-72
2022/02/01 05:57:54;;;;;;;38.78;11.93;;;7.70;99.90;;;;;;5069940;28;20895;-71
2022/02/01 06:00:20;;;;;;;43.13;11.47;;;7.70;99.90;;;;;;5049586;28;20431;-71
2022/02/01 06:02:47;;;;;;;42.77;11.80;;;7.80;99.90;;;;;;5067988;28;20901;-70
2022/02/01 06:05:15;;;;;;;40.47;11.70;;;7.80;99.90;;;;;;5067766;28;20925;-72
2022/02/01 06:07:41;;;;;;;38.60;11.35;;;7.90;99.90;;;;;;5049816;28;20454;-71
2022/02/01 06:10:07;;;;;;;36.25;10.50;;;7.90;99.90;;;;;;5049223;28;20210;-69
2022/02/01 06:12:44;;;;;;;35.63;9.85;;;7.60;99.90;;;;;;5067627;28;20182;-69
2022/02/01 06:15:11;;;;;;;43.35;9.73;;;7.30;99.90;;;;;;5069105;28;20251;-70
2022/02/01 06:17:37;;;;;;;37.80;8.98;;;7.20;99.90;;;;;;5068436;28;20191;-70
2022/02/01 06:20:04;;;;;;;38.13;9.40;;;7.00;99.90;;;;;;5069827;28;20197;-69
2022/02/01 06:22:30;;;;;;;33.65;10.07;;;6.90;99.90;;;;;;5069769;28;20202;-69
2022/02/01 06:24:58;;;;;;;45.03;9.23;;;6.90;99.90;;;;;;5052133;28;20182;-71
2022/02/01 06:27:27;;;;;;;38.33;8.75;;;6.90;99.90;;;;;;5052083;28;20211;-70
2022/02/01 06:29:53;;;;;;;36.60;8.90;;;6.80;99.90;;;;;;5069120;28;20194;-72
2022/02/01 06:32:20;;;;;;;47.17;7.93;;;6.80;99.90;;;;;;5069398;28;20269;-71
2022/02/01 06:34:45;;;;;;;29.25;6.43;;;6.90;99.90;;;;;;5069067;28;20690;-70
2022/02/01 06:37:11;;;;;;;41.35;6.75;;;6.80;99.90;;;;;;5069002;28;20246;-69
2022/02/01 06:39:37;;;;;;;40.75;6.25;;;6.90;99.90;;;;;;5068528;28;20643;-71
2022/02/01 06:42:04;;;;;;;27.80;5.32;;;6.80;99.90;;;;;;5068265;28;20264;-71
2022/02/01 06:44:31;;;;;;;36.10;6.60;;;6.80;99.90;;;;;;5069304;28;20604;-71
2022/02/01 06:46:57;;;;;;;34.83;5.38;;;6.90;99.90;;;;;;5069543;28;20171;-70
2022/02/01 06:49:23;;;;;;;31.48;4.90;;;6.90;99.90;;;;;;5068951;28;20217;-71
2022/02/01 06:51:48;;;;;;;32.60;5.13;;;6.90;99.90;;;;;;5051190;28;20269;-71
2022/02/01 06:54:14;;;;;;;35.15;4.60;;;6.90;99.90;;;;;;5069073;28;20190;-71
2022/02/01 06:56:40;;;;;;;37.15;5.15;;;6.90;99.90;;;;;;5066841;28;20210;-71
2022/02/01 06:59:07;;;;;;;31.08;4.88;;;6.90;99.90;;;;;;5069062;28;20615;-69
2022/02/01 07:01:33;;;;;;;24.13;4.78;;;6.90;99.90;;;;;;5067384;28;20187;-73
2022/02/01 07:03:59;;;;;;;21.65;3.85;;;7.00;99.90;;;;;;5067670;28;20301;-73
2022/02/01 07:06:29;;;;;;;28.02;3.88;;;7.00;99.90;;;;;;5069382;28;20182;-71
2022/02/01 07:08:55;;;;;;;22.10;3.95;;;7.00;99.90;;;;;;5067687;28;20186;-72
2022/02/01 07:11:21;;;;;;;16.98;3.47;;;7.00;99.90;;;;;;5068538;28;20190;-71
2022/02/01 07:13:48;;;;;;;22.75;4.15;;;6.90;99.90;;;;;;5067947;28;20269;-71
2022/02/01 07:16:15;;;;;;;12.52;3.30;;;7.00;99.90;;;;;;5069262;28;20708;-72
2022/02/01 07:18:41;;;;;;;10.25;3.42;;;7.00;99.90;;;;;;5066319;28;20178;-73
2022/02/01 07:21:07;;;;;;;16.25;3.20;;;7.00;99.90;;;;;;5069050;28;20267;-73
2022/02/01 07:23:34;;;;;;;14.15;3.38;;;7.00;99.90;;;;;;5068107;28;20265;-70
2022/02/01 07:26:00;;;;;;;19.13;3.95;;;7.00;99.90;;;;;;5067624;28;20198;-73
2022/02/01 07:28:27;;;;;;;13.68;3.50;;;7.00;99.90;;;;;;5050899;28;20183;-74
2022/02/01 07:30:54;;;;;;;13.60;3.33;;;7.00;99.90;;;;;;5069180;28;20178;-73
2022/02/01 07:33:20;;;;;;;11.07;3.15;;;7.00;99.90;;;;;;5067425;28;20281;-72
2022/02/01 07:35:47;;;;;;;8.23;3.15;;;7.00;99.90;;;;;;5065575;28;20206;-73
2022/02/01 07:38:18;;;;;;;17.33;3.60;;;7.00;99.90;;;;;;5068433;28;20273;-72
2022/02/01 07:40:44;;;;;;;20.10;3.70;;;7.00;99.90;;;;;;5066715;28;20187;-72
2022/02/01 07:43:10;;;;;;;12.13;3.13;;;7.10;99.90;;;;;;5068681;28;20217;-72
2022/02/01 07:45:39;;;;;;;17.85;4.00;;;7.00;99.90;;;;;;5049955;28;20527;-72
2022/02/01 07:48:04;;;;;;;19.65;4.15;;;7.10;99.90;;;;;;5068613;28;20182;-71
2022/02/01 07:50:33;;;;;;;23.40;3.95;;;7.10;99.90;;;;;;5049660;28;20205;-70
2022/02/01 07:53:00;;;;;;;21.20;3.72;;;7.10;99.90;;;;;;5067892;28;20193;-73
2022/02/01 07:55:26;;;;;;;13.68;3.75;;;7.10;99.90;;;;;;5067279;28;20334;-71
2022/02/01 07:57:52;;;;;;;15.52;3.38;;;7.10;99.90;;;;;;5068188;28;20186;-72
2022/02/01 08:00:19;;;;;;;15.32;3.72;;;7.10;99.90;;;;;;5049955;28;20190;-71
2022/02/01 08:02:44;;;;;;;24.50;5.00;;;7.10;99.90;;;;;;5067480;28;20426;-72
2022/02/01 08:05:11;;;;;;;22.02;5.38;;;7.50;99.90;;;;;;5066111;28;20427;-70
2022/02/01 08:07:38;;;;;;;22.95;5.05;;;7.80;99.90;;;;;;5067703;28;21073;-70
2022/02/01 08:10:06;;;;;;;23.27;5.68;;;8.00;99.90;;;;;;5063567;28;20403;-72
2022/02/01 08:20:36;;;;;;;35.88;5.50;;;8.20;99.90;;;;;;5066978;28;20209;-71
2022/02/01 08:23:02;;;;;;;26.60;5.20;;;7.90;99.90;;;;;;5067702;28;20658;-71
2022/02/01 08:25:32;;;;;;;24.75;4.72;;;7.70;99.90;;;;;;5067062;28;20224;-72
2022/02/01 08:28:01;;;;;;;28.13;5.40;;;7.60;99.90;;;;;;5067981;28;20197;-70
2022/02/01 08:30:27;;;;;;;28.98;4.40;;;7.50;99.90;;;;;;5068173;28;20186;-71
2022/02/01 08:32:53;;;;;;;23.90;5.28;;;7.50;99.90;;;;;;5033688;28;20190;-71
2022/02/01 08:35:19;;;;;;;23.65;4.85;;;7.40;99.90;;;;;;5048120;28;20214;-73
2022/02/01 08:37:46;;;;;;;26.33;4.68;;;7.40;99.90;;;;;;5064547;28;20309;-72
2022/02/01 08:40:13;;;;;;;40.67;5.35;;;7.40;99.90;;;;;;5065250;28;20182;-73
2022/02/01 08:42:49;;;;;;;31.88;5.32;;;7.40;99.90;;;;;;5049678;28;20607;-74
2022/02/01 08:45:22;;;;;;;37.80;5.55;;;7.40;99.90;;;;;;5064602;28;20266;-74
2022/02/01 08:47:52;;;;;;;34.10;5.82;;;7.40;99.90;;;;;;5050678;28;20214;-73
2022/02/01 08:50:23;;;;;;;23.77;5.30;;;7.40;99.90;;;;;;5060971;28;20187;-71
2022/02/01 08:52:50;;;;;;;25.33;5.43;;;7.40;99.90;;;;;;5063881;28;20189;-71
2022/02/01 08:55:33;;;;;;;34.60;6.18;;;7.40;99.90;;;;;;5049174;28;20191;-70
2022/02/01 08:58:00;;;;;;;32.00;6.03;;;7.40;99.90;;;;;;5067926;28;20950;-71
2022/02/01 09:00:27;;;;;;;34.17;6.55;;;7.40;99.90;;;;;;5049537;28;20190;-70
2022/02/01 09:02:53;;;;;;;33.03;6.75;;;7.40;99.90;;;;;;5050459;28;20217;-71
2022/02/01 09:05:19;;;;;;;34.83;6.45;;;7.40;99.90;;;;;;5053167;28;20191;-71
2022/02/01 09:07:44;;;;;;;43.00;7.40;;;7.40;99.90;;;;;;5054440;28;20186;-70
2022/02/01 09:10:10;;;;;;;44.25;6.65;;;7.40;99.90;;;;;;5071173;28;20191;-70
2022/02/01 09:12:36;;;;;;;38.70;7.22;;;7.40;99.90;;;;;;5072435;28;20423;-70
2022/02/01 09:15:02;;;;;;;42.53;8.02;;;7.40;99.90;;;;;;5070276;28;20198;-70
2022/02/01 09:17:27;;;;;;;41.85;7.70;;;7.50;99.90;;;;;;5052785;28;20194;-70
2022/02/01 09:19:53;;;;;;;38.80;7.80;;;7.40;99.90;;;;;;5070540;28;20182;-70
2022/02/01 09:22:18;;;;;;;64.53;9.13;;;7.50;99.90;;;;;;5054374;28;20210;-70
2022/02/01 09:24:44;;;;;;;45.13;8.15;;;7.50;99.90;;;;;;5052270;28;20254;-69
2022/02/01 09:27:13;;;;;;;44.42;8.18;;;7.50;99.90;;;;;;5072027;28;20183;-70
2022/02/01 09:29:39;;;;;;;43.15;8.15;;;7.50;99.90;;;;;;5070241;28;20182;-70
2022/02/01 09:32:05;;;;;;;49.17;8.90;;;7.50;99.90;;;;;;5071309;28;20186;-70
2022/02/01 09:34:31;;;;;;;42.35;8.05;;;7.50;99.90;;;;;;5071068;28;20183;-70
2022/02/01 09:36:58;;;;;;;53.05;7.85;;;7.50;99.90;;;;;;5051249;28;20238;-72
2022/02/01 09:39:25;;;;;;;44.55;7.50;;;7.50;99.90;;;;;;5070897;28;20190;-71
2022/02/01 09:41:52;;;;;;;57.55;7.70;;;7.60;99.90;;;;;;5071009;28;20186;-72
2022/02/01 09:44:19;;;;;;;52.72;7.97;;;7.60;99.90;;;;;;5071332;28;20641;-73
2022/02/01 09:46:48;;;;;;;41.38;7.45;;;7.60;99.90;;;;;;5069178;28;20248;-73
2022/02/01 09:49:16;;;;;;;55.83;7.70;;;7.60;99.90;;;;;;5070668;28;20312;-73
2022/02/01 09:51:43;;;;;;;39.00;7.85;;;7.60;99.90;;;;;;5069841;28;20265;-72
2022/02/01 09:54:09;;;;;;;47.55;8.18;;;7.60;99.90;;;;;;5052473;28;20182;-73
2022/02/01 09:56:35;;;;;;;46.30;8.27;;;7.60;99.90;;;;;;5068770;28;20185;-73
2022/02/01 09:59:01;;;;;;;49.20;8.43;;;7.70;99.90;;;;;;5069617;28;20186;-73
2022/02/01 10:01:30;;;;;;;52.80;8.95;;;7.70;99.90;;;;;;5070483;28;20210;-72
2022/02/01 10:04:14;;;;;;;53.72;8.02;;;7.70;99.90;;;;;;5070875;28;20283;-72
2022/02/01 10:06:41;;;;;;;65.28;8.15;;;7.70;99.90;;;;;;5069836;28;20186;-73
2022/02/01 10:09:13;;;;;;;46.55;8.52;;;7.70;99.90;;;;;;5053728;28;20266;-73
2022/02/01 10:11:45;;;;;;;62.58;8.43;;;7.70;99.90;;;;;;5052149;28;20210;-72
2022/02/01 10:14:19;;;;;;;46.20;8.45;;;7.80;99.90;;;;;;5069989;28;20657;-72
2022/02/01 10:16:53;;;;;;;51.17;8.10;;;7.80;99.90;;;;;;5069812;28;20198;-73
2022/02/01 10:19:19;;;;;;;57.35;9.05;;;7.80;99.90;;;;;;5052967;28;20204;-75
2022/02/01 10:21:59;;;;;;;56.45;8.93;;;7.80;99.90;;;;;;5068813;28;20186;-72
2022/02/01 10:24:38;;;;;;;49.40;8.35;;;7.90;99.90;;;;;;5070010;28;20178;-73
2022/02/01 10:27:13;;;;;;;56.20;7.95;;;7.90;99.90;;;;;;5070991;28;20185;-73
2022/02/01 10:30:01;;;;;;;52.10;9.07;;;7.90;99.90;;;;;;5052132;28;20206;-74
2022/02/01 10:32:41;;;;;;;64.03;7.68;;;7.90;99.90;;;;;;5070733;28;20186;-75
2022/02/01 10:38:08;;;;;;;43.58;7.38;;;8.00;99.90;;;;;;5052525;28;20231;-72
2022/02/01 10:40:41;;;;;;;51.95;7.82;;;8.00;99.90;;;;;;5069646;28;20186;-73
2022/02/01 10:43:20;;;;;;;50.05;7.93;;;8.00;99.90;;;;;;5050590;28;20672;-73
2022/02/01 10:45:47;;;;;;;53.15;7.93;;;8.00;99.90;;;;;;5067703;28;20186;-73
2022/02/01 10:48:14;;;;;;;56.47;8.68;;;8.00;99.90;;;;;;5069553;28;20175;-73
2022/02/01 10:50:40;;;;;;;57.67;7.97;;;8.00;99.90;;;;;;5069544;28;20187;-72
2022/02/01 10:53:16;;;;;;;49.58;7.82;;;8.00;99.90;;;;;;5068910;28;20200;-73
2022/02/01 10:55:43;;;;;;;53.95;8.25;;;8.00;99.90;;;;;;5067971;28;20360;-73
2022/02/01 10:58:09;;;;;;;46.05;8.00;;;8.10;99.90;;;;;;5070335;28;20194;-72
2022/02/01 11:00:35;;;;;;;45.37;9.03;;;8.10;99.90;;;;;;5066998;28;20423;-72
2022/02/01 11:03:03;;;;;;;42.58;8.65;;;8.50;99.90;;;;;;5067427;28;20776;-73
2022/02/01 11:05:29;;;;;;;41.40;7.83;;;8.80;99.90;;;;;;5067157;28;20410;-72
2022/02/01 11:07:54;;;;;;;37.53;7.55;;;9.00;99.90;;;;;;5070001;28;20179;-70
2022/02/01 11:10:21;;;;;;;43.03;8.63;;;8.80;99.90;;;;;;5049971;28;20400;-71
2022/02/01 11:12:46;;;;;;;41.22;8.80;;;9.00;99.90;;;;;;5068704;28;20408;-71
2022/02/01 11:15:20;;;;;;;36.53;7.53;;;9.20;99.90;;;;;;5067304;28;20422;-71
2022/02/01 11:17:47;;;;;;;38.35;7.80;;;9.40;99.90;;;;;;5050212;28;20465;-72
2022/02/01 11:20:24;;;;;;;39.42;7.68;;;9.40;99.90;;;;;;5032462;28;21023;-71
2022/02/01 11:22:59;;;;;;;36.95;7.25;;;9.50;99.90;;;;;;5050746;28;20811;-71
2022/02/01 11:25:28;;;;;;;30.35;6.45;;;9.60;99.90;;;;;;5068151;28;20198;-71
2022/02/01 11:28:09;;;;;;;40.95;6.15;;;9.30;99.90;;;;;;5051958;28;20187;-72
2022/02/01 11:30:35;;;;;;;35.58;7.13;;;9.10;99.90;;;;;;5068133;28;20650;-73
2022/02/01 11:33:02;;;;;;;34.22;5.93;;;8.90;99.90;;;;;;5035148;28;20281;-73
2022/02/01 11:35:28;;;;;;;34.35;6.28;;;8.90;99.90;;;;;;5068408;28;20197;-72
2022/02/01 11:38:06;;;;;;;43.67;6.72;;;8.80;99.90;;;;;;5069464;28;20564;-71
2022/02/01 11:40:46;;;;;;;39.35;6.95;;;8.70;99.90;;;;;;5068948;28;20183;-72
2022/02/01 11:43:14;;;;;;;29.70;6.32;;;8.70;99.90;;;;;;5069644;28;20221;-73
2022/02/01 11:45:54;;;;;;;38.35;6.78;;;8.70;99.90;;;;;;5050057;28;20222;-72
2022/02/01 11:48:23;;;;;;;29.27;6.00;;;8.70;99.90;;;;;;5068822;28;20316;-73
2022/02/01 11:50:59;;;;;;;40.50;6.95;;;8.70;99.90;;;;;;5083576;28;20194;-71
2022/02/01 11:53:32;;;;;;;31.25;5.65;;;8.70;99.90;;;;;;5067303;28;20222;-72
2022/02/01 11:55:58;;;;;;;39.53;6.07;;;8.80;99.90;;;;;;5066540;28;20366;-74
2022/02/01 11:58:32;;;;;;;35.42;5.53;;;8.80;99.90;;;;;;5050810;28;20646;-72
2022/02/01 12:00:59;;;;;;;32.65;6.18;;;8.80;99.90;;;;;;5050840;28;20197;-71
2022/02/01 12:03:37;;;;;;;27.02;6.15;;;8.80;99.90;;;;;;5051271;28;20206;-74
2022/02/01 12:06:08;;;;;;;29.85;5.28;;;8.90;99.90;;;;;;5066677;28;20217;-74
2022/02/01 12:08:37;;;;;;;30.52;5.65;;;8.90;99.90;;;;;;5069404;28;20193;-72
2022/02/01 12:11:07;;;;;;;24.27;5.05;;;8.90;99.90;;;;;;5068463;28;20647;-71
2022/02/01 12:13:35;;;;;;;23.50;4.95;;;8.90;99.90;;;;;;5068860;28;20658;-72
2022/02/01 12:16:05;;;;;;;24.52;5.75;;;9.00;99.90;;;;;;5068128;28;20194;-72
2022/02/01 12:18:56;;;;;;;27.15;5.10;;;9.00;99.90;;;;;;5069580;28;20187;-72
2022/02/01 12:21:31;;;;;;;37.30;5.55;;;9.10;99.90;;;;;;5067697;28;20265;-73
2022/02/01 12:24:03;;;;;;;33.83;4.95;;;9.10;99.90;;;;;;5068422;28;20213;-71
2022/02/01 12:26:35;;;;;;;34.97;5.20;;;9.10;99.90;;;;;;5065995;28;20265;-72
2022/02/01 12:29:03;;;;;;;25.15;5.38;;;9.20;99.90;;;;;;5069130;28;20240;-71
2022/02/01 12:31:33;;;;;;;55.55;5.43;;;9.20;99.90;;;;;;5051341;28;20187;-73
2022/02/01 12:34:01;;;;;;;32.65;5.43;;;9.20;99.90;;;;;;5049754;28;20194;-74
2022/02/01 12:36:35;;;;;;;29.08;5.20;;;9.20;99.90;;;;;;5063283;28;20242;-72
2022/02/01 12:39:31;;;;;;;18.60;4.10;;;9.20;99.90;;;;;;5072120;28;20745;-72
2022/02/01 12:42:28;;;;;;;22.65;4.25;;;9.20;99.90;;;;;;5085169;28;20198;-72
2022/02/01 12:47:22;;;;;;;22.42;3.88;;;9.30;99.90;;;;;;5068296;28;20261;-73
2022/02/01 12:49:51;;;;;;;24.92;4.50;;;9.40;99.90;;;;;;5065920;28;20176;-74
2022/02/01 12:52:28;;;;;;;22.08;3.83;;;9.40;99.90;;;;;;5063132;28;20657;-71
2022/02/01 12:55:08;;;;;;;26.33;4.15;;;9.40;99.90;;;;;;5067748;28;20190;-71
2022/02/01 12:57:36;;;;;;;20.98;3.97;;;9.40;99.90;;;;;;5067976;28;20292;-71
2022/02/01 13:00:12;;;;;;;29.20;3.78;;;9.40;99.90;;;;;;5070861;28;20187;-71
2022/02/01 13:02:38;;;;;;;20.65;4.55;;;9.40;99.90;;;;;;5069664;28;20883;-76
2022/02/01 13:05:09;;;;;;;26.33;4.30;;;9.90;99.90;;;;;;5070619;28;20399;-74
2022/02/01 13:08:34;;;;;;;26.85;4.90;;;10.20;99.90;;;;;;5070180;28;20423;-73
2022/02/01 13:21:16;;;;;;;21.53;4.30;;;10.80;99.90;;;;;;5069251;28;20424;-74
2022/02/01 13:23:44;;;;;;;16.77;4.00;;;10.90;99.90;;;;;;5068543;28;20426;-75
2022/02/01 13:26:26;;;;;;;23.73;4.80;;;10.90;99.90;;;;;;5051517;28;20400;-73
2022/02/01 13:29:10;;;;;;;19.27;3.55;;;10.90;99.90;;;;;;5071005;28;20472;-74
2022/02/01 13:31:46;;;;;;;25.30;4.00;;;10.50;99.90;;;;;;5068905;28;20183;-74
2022/02/01 13:34:13;;;;;;;22.27;3.40;;;10.20;99.90;;;;;;5072207;28;20190;-71
2022/02/01 13:36:47;;;;;;;18.35;3.42;;;10.00;99.90;;;;;;5071194;28;20296;-76
2022/02/01 13:39:32;;;;;;;26.08;3.53;;;9.90;99.90;;;;;;5070636;28;20189;-74
2022/02/01 13:42:05;;;;;;;25.13;3.47;;;9.90;99.90;;;;;;5052975;28;20193;-75
2022/02/01 13:44:31;;;;;;;24.33;3.67;;;9.80;99.90;;;;;;5051879;28;20182;-74
2022/02/01 13:47:15;;;;;;;25.10;4.35;;;9.80;99.90;;;;;;5071291;28;20199;-72
2022/02/01 13:49:41;;;;;;;30.85;4.30;;;9.70;99.90;;;;;;5069903;28;20186;-73
2022/02/01 13:52:07;;;;;;;23.08;3.67;;;9.70;99.90;;;;;;5070821;28;20197;-73
2022/02/01 13:54:44;;;;;;;32.03;4.25;;;9.70;99.90;;;;;;5069853;28;20650;-75
2022/02/01 13:57:20;;;;;;;22.75;3.35;;;9.70;99.90;;;;;;5069946;28;20239;-75
2022/02/01 13:59:47;;;;;;;31.13;3.78;;;9.70;99.90;;;;;;5070763;28;20642;-72
2022/02/01 14:02:20;;;;;;;30.10;3.70;;;9.80;99.90;;;;;;5053146;28;20611;-74
2022/02/01 14:04:55;;;;;;;29.05;3.85;;;9.80;99.90;;;;;;5069622;28;20187;-73
2022/02/01 14:07:51;;;;;;;27.38;4.28;;;9.80;99.90;;;;;;5052778;28;20320;-73
2022/02/01 14:10:39;;;;;;;25.67;3.50;;;9.80;99.90;;;;;;5070827;28;20187;-72
2022/02/01 14:28:59;;;;;;;33.60;5.25;;;10.30;99.90;;;;;;5069808;28;20194;-72
2022/02/01 14:34:21;;;;;;;39.22;5.10;;;10.20;99.90;;;;;;5070895;28;20265;-74
2022/02/01 14:36:50;;;;;;;31.13;4.53;;;10.20;99.90;;;;;;5049048;28;20501;-75
2022/02/01 14:42:54;;;;;;;29.50;4.40;;;10.20;99.90;;;;;;5051375;28;20184;-76
2022/02/01 14:44:49;;;;;;;40.60;4.85;;;10.20;99.90;;;;;;5047629;28;20274;-75
2022/02/01 14:47:20;;;;;;;31.15;3.97;;;10.10;99.90;;;;;;5050695;28;20671;-75
2022/02/01 14:49:46;;;;;;;35.92;4.13;;;10.10;99.90;;;;;;5049779;28;20184;-74
2022/02/01 14:52:13;;;;;;;25.13;3.75;;;10.00;99.90;;;;;;5050339;28;20179;-75
2022/02/01 14:54:45;;;;;;;28.92;3.58;;;10.00;99.90;;;;;;5046346;28;20187;-73